Time;durP1;ratioP1;P1;durP2;ratioP2;P2;SDS_P1;SDS_P2;PMS_P1;PMS_P2;Temp;Humidity;BMP_temperature;BMP_pressure;BME280_temperature;BME280_humidity;BME280_pressure;Samples;Min_cycle;Max_cycle;Signal;HPM_P1;HPM_P2
2023/09/19 00:00:58;;;;;;;6.40;5.70;;;;;;;19.00;71.09;98659.05;109370;1286;22131;-55
2023/09/19 00:03:41;;;;;;;7.40;6.10;;;;;;;18.93;71.41;98657.77;109298;1283;99724;-56
2023/09/19 00:06:13;;;;;;;10.30;6.60;;;;;;;18.99;71.70;98664.60;109082;1286;22222;-55
2023/09/19 00:08:44;;;;;;;7.00;5.20;;;;;;;18.95;72.25;98660.91;109272;1286;100370;-55
2023/09/19 00:11:14;;;;;;;8.40;6.80;;;;;;;18.81;73.08;98655.52;109413;1285;22294;-55
2023/09/19 00:13:43;;;;;;;6.60;5.60;;;;;;;18.63;73.89;98653.92;109346;1285;99877;-55
2023/09/19 00:16:11;;;;;;;8.10;6.70;;;;;;;18.44;74.97;98652.70;109399;1285;23045;-55
2023/09/19 00:18:40;;;;;;;7.40;6.00;;;;;;;18.33;75.37;98652.54;109388;1286;22511;-55
2023/09/19 00:21:10;;;;;;;6.70;5.90;;;;;;;18.25;76.06;98651.77;109329;1286;99753;-55
2023/09/19 00:23:40;;;;;;;7.60;6.10;;;;;;;18.23;77.29;98659.89;109403;1286;22198;-55
2023/09/19 00:26:09;;;;;;;6.60;5.70;;;;;;;18.19;77.14;98664.30;109306;1285;100043;-55
2023/09/19 00:28:38;;;;;;;9.50;6.30;;;;;;;18.13;77.43;98659.19;109452;1286;22080;-55
2023/09/19 00:31:08;;;;;;;6.40;5.20;;;;;;;18.08;77.59;98661.09;109115;1289;22331;-55
2023/09/19 00:33:37;;;;;;;8.90;6.40;;;;;;;18.09;78.36;98663.83;109321;1285;100603;-55
2023/09/19 00:36:06;;;;;;;7.30;6.20;;;;;;;18.15;79.04;98663.66;109431;1287;22880;-55
2023/09/19 00:38:35;;;;;;;8.40;6.10;;;;;;;18.20;80.83;98662.09;109057;1287;100164;-55
2023/09/19 00:41:04;;;;;;;7.80;6.70;;;;;;;18.21;80.21;98656.95;109190;1287;22309;-55
2023/09/19 00:43:34;;;;;;;6.40;5.80;;;;;;;18.15;79.65;98654.80;109429;1286;22178;-55
2023/09/19 00:46:06;;;;;;;8.20;5.40;;;;;;;18.09;79.15;98653.20;109411;1285;22327;-56
2023/09/19 00:48:43;;;;;;;7.70;6.70;;;;;;;18.03;79.07;98651.53;109161;1286;22976;-56
2023/09/19 00:51:13;;;;;;;7.60;6.50;;;;;;;18.01;79.37;98651.36;109306;1285;100829;-55
2023/09/19 00:53:46;;;;;;;8.20;7.30;;;;;;;18.01;79.29;98651.84;109413;1285;22168;-55
2023/09/19 00:56:18;;;;;;;9.10;6.10;;;;;;;18.05;79.58;98650.61;109326;1286;100417;-55
2023/09/19 00:58:48;;;;;;;5.40;4.80;;;;;;;18.13;80.03;98644.45;109412;1286;22843;-55
2023/09/19 01:01:17;;;;;;;7.40;5.20;;;;;;;18.20;80.05;98644.67;109395;1285;22307;-55
2023/09/19 01:03:46;;;;;;;6.90;5.10;;;;;;;18.24;80.08;98640.01;108904;1286;100226;-55
2023/09/19 01:06:15;;;;;;;10.30;6.60;;;;;;;18.30;80.25;98641.95;109475;1285;22160;-55
2023/09/19 01:08:43;;;;;;;7.10;5.80;;;;;;;18.35;80.18;98638.99;109066;1289;102738;-55
2023/09/19 01:11:21;;;;;;;8.70;6.90;;;;;;;18.38;79.95;98639.03;109425;1285;22083;-55
2023/09/19 01:13:57;;;;;;;9.00;5.50;;;;;;;18.40;80.13;98638.46;109361;1287;99945;-56
2023/09/19 01:16:42;;;;;;;7.20;5.90;;;;;;;18.42;80.14;98637.00;109380;1285;22238;-55
2023/09/19 01:19:20;;;;;;;5.90;5.30;;;;;;;18.46;80.02;98640.52;109440;1285;22201;-56
2023/09/19 01:22:06;;;;;;;6.00;5.10;;;;;;;18.49;80.28;98633.17;109327;1285;99838;-56
2023/09/19 01:24:53;;;;;;;5.80;4.50;;;;;;;18.54;80.40;98633.41;109424;1285;22323;-55
2023/09/19 01:27:52;;;;;;;9.10;4.70;;;;;;;18.56;80.19;98632.48;109313;1285;99674;-55
2023/09/19 01:30:24;;;;;;;6.10;5.20;;;;;;;18.59;80.19;98633.00;109367;1285;22422;-55
2023/09/19 01:32:54;;;;;;;8.30;5.70;;;;;;;18.60;80.39;98628.61;109309;1286;101465;-55
2023/09/19 01:35:23;;;;;;;7.40;5.70;;;;;;;18.62;80.37;98629.33;109391;1285;22337;-56
2023/09/19 01:37:53;;;;;;;6.50;4.70;;;;;;;18.62;80.49;98621.70;109027;1288;100386;-56
2023/09/19 01:40:23;;;;;;;5.80;4.40;;;;;;;18.64;80.66;98623.98;109103;1286;22179;-55
2023/09/19 01:43:11;;;;;;;4.80;4.20;;;;;;;18.66;80.54;98622.86;109178;1286;22327;-56
2023/09/19 01:45:56;;;;;;;5.60;3.80;;;;;;;18.68;80.54;98624.98;109347;1285;100159;-56
2023/09/19 01:48:38;;;;;;;4.50;4.00;;;;;;;18.68;80.55;98623.73;109419;1285;22459;-56
2023/09/19 01:51:12;;;;;;;5.10;4.00;;;;;;;18.70;80.33;98627.13;109306;1286;99650;-56
2023/09/19 01:54:08;;;;;;;6.30;4.10;;;;;;;18.69;80.46;98631.95;109177;1282;22295;-56
2023/09/19 01:56:59;;;;;;;4.70;3.40;;;;;;;18.66;80.69;98635.59;109047;1286;100333;-56
2023/09/19 01:59:35;;;;;;;5.10;3.30;;;;;;;18.68;80.21;98632.59;109121;1286;23069;-56
2023/09/19 02:02:10;;;;;;;4.00;3.10;;;;;;;18.66;80.38;98631.73;109325;1286;100850;-56
2023/09/19 02:04:41;;;;;;;3.80;3.40;;;;;;;18.59;80.52;98627.52;109388;1285;23008;-56
2023/09/19 02:07:10;;;;;;;4.40;3.30;;;;;;;18.53;80.66;98626.41;109386;1285;22343;-56
2023/09/19 02:09:39;;;;;;;3.70;3.10;;;;;;;18.50;80.93;98625.98;109322;1286;100667;-55
2023/09/19 02:12:09;;;;;;;3.80;2.70;;;;;;;18.47;80.99;98623.13;109366;1286;22308;-56
2023/09/19 02:14:37;;;;;;;3.10;2.50;;;;;;;18.42;80.88;98621.20;109283;1286;100135;-56
2023/09/19 02:17:07;;;;;;;4.90;2.30;;;;;;;18.36;81.13;98629.37;109417;1285;22305;-56
2023/09/19 02:19:36;;;;;;;3.40;2.30;;;;;;;18.30;81.08;98625.91;109381;1286;22326;-56
2023/09/19 02:22:07;;;;;;;3.30;1.90;;;;;;;18.25;81.47;98627.91;109378;1286;22352;-56
2023/09/19 02:24:39;;;;;;;2.80;1.80;;;;;;;18.22;81.83;98623.70;109128;1286;22428;-56
2023/09/19 02:27:08;;;;;;;4.30;2.20;;;;;;;18.20;82.01;98622.11;109281;1285;99828;-56
2023/09/19 02:29:36;;;;;;;2.90;1.60;;;;;;;18.18;82.34;98617.71;109119;1286;22342;-56
2023/09/19 02:32:06;;;;;;;4.30;2.20;;;;;;;18.17;82.31;98618.02;109316;1285;98974;-55
2023/09/19 02:34:36;;;;;;;3.00;1.60;;;;;;;18.09;82.48;98616.61;109182;1286;22251;-56
2023/09/19 02:37:08;;;;;;;3.70;1.50;;;;;;;18.05;82.69;98611.20;109383;1287;22431;-56
2023/09/19 02:39:37;;;;;;;2.00;1.40;;;;;;;18.02;82.56;98617.13;109155;1289;99773;-56
2023/09/19 02:42:06;;;;;;;1.70;1.00;;;;;;;17.90;83.13;98618.39;109098;1285;22350;-56
2023/09/19 02:44:35;;;;;;;1.20;0.90;;;;;;;17.85;83.62;98612.06;109284;1280;99695;-56
2023/09/19 02:47:04;;;;;;;2.40;1.20;;;;;;;17.78;84.29;98615.13;108972;1286;23227;-55
2023/09/19 02:49:32;;;;;;;1.80;1.10;;;;;;;17.75;84.55;98613.68;109413;1285;22377;-55
2023/09/19 02:52:02;;;;;;;2.20;1.10;;;;;;;17.71;85.61;98611.05;109318;1285;99347;-56
2023/09/19 02:54:31;;;;;;;1.40;0.90;;;;;;;17.64;85.75;98607.41;109433;1286;24163;-56
2023/09/19 02:56:59;;;;;;;3.50;1.10;;;;;;;17.61;86.39;98602.27;109045;1286;100250;-55
2023/09/19 02:59:29;;;;;;;1.90;0.80;;;;;;;17.59;86.67;98592.43;109394;1286;22178;-55
2023/09/19 03:02:00;;;;;;;2.40;1.40;;;;;;;17.59;87.59;98583.09;109093;1287;99911;-55
2023/09/19 03:04:29;;;;;;;2.50;1.60;;;;;;;17.59;87.58;98578.54;109421;1286;22310;-55
2023/09/19 03:07:00;;;;;;;1.10;0.80;;;;;;;17.56;87.86;98575.89;109144;1286;22168;-55
2023/09/19 03:09:28;;;;;;;2.20;1.40;;;;;;;17.54;88.35;98575.54;109324;1285;100110;-56
2023/09/19 03:11:58;;;;;;;1.70;1.20;;;;;;;17.53;88.61;98571.78;109432;1286;23445;-56
2023/09/19 03:14:30;;;;;;;2.50;1.30;;;;;;;17.51;88.74;98559.92;109353;1285;100746;-56
2023/09/19 03:16:59;;;;;;;2.10;1.10;;;;;;;17.47;88.69;98558.58;109439;1270;22215;-56
2023/09/19 03:19:28;;;;;;;1.20;1.00;;;;;;;17.44;88.96;98553.90;109418;1285;22697;-56
2023/09/19 03:21:57;;;;;;;1.60;1.20;;;;;;;17.40;89.28;98549.93;109296;1285;99898;-56
2023/09/19 03:24:35;;;;;;;1.40;1.00;;;;;;;17.37;89.38;98545.78;109308;1285;22164;-56
2023/09/19 03:27:04;;;;;;;1.50;1.00;;;;;;;17.33;89.25;98540.77;109093;1286;100318;-56
2023/09/19 03:29:33;;;;;;;3.60;1.10;;;;;;;17.25;89.24;98536.61;109388;1286;22877;-56
2023/09/19 03:32:03;;;;;;;4.60;1.50;;;;;;;17.22;89.89;98531.33;109078;1286;100270;-56
2023/09/19 03:34:32;;;;;;;2.20;1.10;;;;;;;17.22;90.71;98537.17;109178;1286;22787;-56
2023/09/19 03:37:00;;;;;;;1.90;0.90;;;;;;;17.25;90.99;98536.58;109439;1285;22082;-56
2023/09/19 03:39:29;;;;;;;0.90;0.70;;;;;;;17.20;90.76;98532.05;108884;1280;101730;-56
2023/09/19 03:41:57;;;;;;;3.90;1.00;;;;;;;17.19;91.20;98523.58;109439;1285;23128;-56
2023/09/19 03:44:26;;;;;;;1.80;0.90;;;;;;;17.16;91.13;98514.56;108908;1282;99602;-56
2023/09/19 03:46:56;;;;;;;2.40;0.90;;;;;;;17.14;91.67;98506.98;109438;1285;22222;-55
2023/09/19 03:49:25;;;;;;;3.00;1.20;;;;;;;17.15;92.26;98504.27;109394;1285;22084;-56
2023/09/19 03:51:53;;;;;;;1.40;1.30;;;;;;;17.15;92.38;98503.67;109323;1286;99504;-56
2023/09/19 03:54:22;;;;;;;1.50;0.90;;;;;;;17.13;92.60;98503.69;109427;1285;22143;-56
2023/09/19 03:56:51;;;;;;;1.70;1.00;;;;;;;17.09;92.70;98499.33;109098;1286;99643;-56
2023/09/19 03:59:19;;;;;;;2.90;1.80;;;;;;;17.08;92.77;98497.48;109384;1285;23238;-56
2023/09/19 04:01:48;;;;;;;1.10;0.90;;;;;;;17.03;92.46;98490.09;109275;1285;100119;-56
2023/09/19 04:04:18;;;;;;;3.40;1.80;;;;;;;16.99;92.28;98488.57;109408;1285;22192;-56
2023/09/19 04:06:47;;;;;;;1.50;0.90;;;;;;;16.95;92.18;98482.75;109373;1286;22148;-56
2023/09/19 04:09:16;;;;;;;1.00;0.90;;;;;;;16.92;92.10;98480.88;109306;1285;100230;-56
2023/09/19 04:11:44;;;;;;;1.50;0.80;;;;;;;16.91;92.10;98474.19;109369;1285;22157;-56
2023/09/19 04:14:13;;;;;;;1.50;0.80;;;;;;;16.88;92.39;98470.23;109324;1285;100265;-56
2023/09/19 04:16:41;;;;;;;3.30;1.00;;;;;;;16.88;92.96;98474.42;109150;1288;22309;-56
2023/09/19 04:19:10;;;;;;;2.40;1.20;;;;;;;16.90;93.59;98473.55;109283;1285;22960;-56
2023/09/19 04:21:39;;;;;;;3.30;1.30;;;;;;;16.92;94.02;98473.15;109305;1285;100074;-56
2023/09/19 04:24:08;;;;;;;2.00;1.50;;;;;;;16.94;94.33;98468.98;109124;1286;22190;-56
2023/09/19 04:26:37;;;;;;;2.20;1.00;;;;;;;16.98;95.83;98474.15;109324;1285;100147;-56
2023/09/19 04:29:06;;;;;;;3.10;1.30;;;;;;;17.02;95.84;98480.37;109379;1279;22059;-56
2023/09/19 04:31:34;;;;;;;2.20;1.20;;;;;;;17.01;95.55;98479.73;109352;1285;22224;-56
2023/09/19 04:34:04;;;;;;;6.70;1.10;;;;;;;16.99;95.47;98480.10;109324;1285;22154;-56
2023/09/19 04:36:33;;;;;;;1.40;1.10;;;;;;;16.98;95.56;98483.75;109413;1285;22367;-56
2023/09/19 04:39:07;;;;;;;3.90;1.10;;;;;;;16.99;95.55;98492.77;109241;1285;100080;-56
2023/09/19 04:41:38;;;;;;;2.40;0.90;;;;;;;17.02;95.51;98496.20;109367;1286;22205;-56
2023/09/19 04:44:07;;;;;;;2.10;0.80;;;;;;;17.04;95.72;98502.49;109343;1285;100248;-56
2023/09/19 04:46:36;;;;;;;3.20;1.00;;;;;;;17.01;96.43;98505.25;109447;1285;22280;-56
2023/09/19 04:49:05;;;;;;;3.90;1.20;;;;;;;16.96;97.19;98502.17;109175;1286;22316;-56
2023/09/19 04:51:36;;;;;;;2.60;0.80;;;;;;;16.93;97.79;98497.19;109321;1285;100178;-56
2023/09/19 04:54:05;;;;;;;2.30;1.20;;;;;;;16.89;97.54;98486.19;109381;1285;22153;-56
2023/09/19 04:56:34;;;;;;;1.50;0.90;;;;;;;16.85;98.17;98487.22;109340;1279;100095;-56
2023/09/19 04:59:02;;;;;;;1.10;0.60;;;;;;;16.87;98.96;98489.52;109409;1285;23048;-56
2023/09/19 05:01:31;;;;;;;1.40;0.80;;;;;;;16.85;98.92;98497.01;109393;1285;22359;-56
2023/09/19 05:04:01;;;;;;;4.30;1.60;;;;;;;16.86;98.83;98502.29;109320;1286;101954;-56
2023/09/19 05:06:40;;;;;;;2.50;1.00;;;;;;;16.85;99.17;98493.17;109384;1285;23251;-56
2023/09/19 05:09:13;;;;;;;4.10;0.90;;;;;;;16.85;99.44;98489.33;109083;1286;100732;-56
2023/09/19 05:11:45;;;;;;;4.60;1.20;;;;;;;16.86;99.30;98499.20;109401;1285;22276;-56
2023/09/19 05:14:15;;;;;;;1.20;0.80;;;;;;;16.89;99.63;98507.23;109304;1285;101321;-56
2023/09/19 05:16:44;;;;;;;3.90;1.70;;;;;;;16.93;99.96;98505.98;109372;1285;22328;-56
2023/09/19 05:19:13;;;;;;;3.30;1.20;;;;;;;16.97;100.00;98503.50;109192;1286;22164;-56
2023/09/19 05:21:41;;;;;;;2.90;1.40;;;;;;;17.00;100.00;98505.64;109352;1281;100268;-55
2023/09/19 05:24:11;;;;;;;1.50;0.90;;;;;;;17.05;100.00;98508.54;109460;1285;22233;-53
2023/09/19 05:26:40;;;;;;;1.60;0.90;;;;;;;17.12;100.00;98513.30;109376;1285;100322;-53
2023/09/19 05:29:09;;;;;;;26.30;2.80;;;;;;;17.17;100.00;98516.74;109358;1285;22307;-57
2023/09/19 05:31:40;;;;;;;1.30;0.80;;;;;;;17.21;100.00;98520.39;109079;1286;100097;-56
2023/09/19 05:34:09;;;;;;;1.70;0.90;;;;;;;17.25;100.00;98526.17;109412;1285;22308;-56
2023/09/19 05:36:39;;;;;;;2.80;1.10;;;;;;;17.31;100.00;98527.42;109385;1285;22194;-54
2023/09/19 05:39:09;;;;;;;1.70;1.30;;;;;;;17.32;100.00;98532.77;109102;1286;100055;-56
2023/09/19 05:41:39;;;;;;;1.70;1.10;;;;;;;17.35;100.00;98535.48;109415;1285;22282;-56
2023/09/19 05:44:08;;;;;;;1.90;1.20;;;;;;;17.40;100.00;98533.61;109292;1285;99779;-58
2023/09/19 05:46:37;;;;;;;3.20;1.60;;;;;;;17.45;100.00;98529.63;109378;1276;22365;-56
2023/09/19 05:49:05;;;;;;;2.30;1.50;;;;;;;17.47;100.00;98528.86;109367;1285;22277;-57
2023/09/19 05:51:35;;;;;;;2.10;1.30;;;;;;;17.47;100.00;98521.97;109270;1285;99673;-58
2023/09/19 05:54:05;;;;;;;2.10;1.20;;;;;;;17.51;100.00;98518.80;109135;1285;22203;-58
2023/09/19 05:56:36;;;;;;;1.70;1.30;;;;;;;17.56;100.00;98510.20;109270;1285;100714;-58
2023/09/19 05:59:05;;;;;;;2.40;1.70;;;;;;;17.66;100.00;98515.23;109094;1286;22072;-57
2023/09/19 06:01:34;;;;;;;1.80;1.30;;;;;;;17.74;100.00;98520.38;109373;1285;22405;-58
2023/09/19 06:04:04;;;;;;;1.90;1.40;;;;;;;17.83;100.00;98519.33;109410;1285;22259;-59
2023/09/19 06:06:38;;;;;;;2.70;1.50;;;;;;;17.95;100.00;98524.27;109106;1285;378219;-59
2023/09/19 06:09:09;;;;;;;2.40;1.50;;;;;;;18.12;100.00;98529.03;108919;1286;99939;-59
2023/09/19 06:11:38;;;;;;;2.40;1.80;;;;;;;18.26;100.00;98530.61;109116;1286;22138;-59
2023/09/19 06:14:07;;;;;;;1.90;1.40;;;;;;;18.45;100.00;98533.13;109281;1285;101078;-59
2023/09/19 06:16:38;;;;;;;1.80;1.20;;;;;;;18.62;100.00;98530.42;109134;1285;22176;-58
2023/09/19 06:19:08;;;;;;;1.90;1.10;;;;;;;18.77;100.00;98536.55;109384;1286;22247;-58
2023/09/19 06:21:37;;;;;;;1.70;1.30;;;;;;;18.87;100.00;98544.85;109293;1279;100954;-58
2023/09/19 06:24:06;;;;;;;2.00;1.30;;;;;;;18.99;100.00;98542.05;109401;1284;22315;-58
2023/09/19 06:26:35;;;;;;;2.80;1.60;;;;;;;19.09;100.00;98546.41;109314;1286;101515;-57
2023/09/19 06:29:06;;;;;;;1.90;1.50;;;;;;;19.10;100.00;98546.94;109405;1285;22183;-59
2023/09/19 06:31:36;;;;;;;3.20;2.40;;;;;;;19.08;100.00;98555.30;109382;1285;22384;-57
2023/09/19 06:34:04;;;;;;;1.30;0.80;;;;;;;19.11;100.00;98555.38;109079;1286;100526;-57
2023/09/19 06:36:33;;;;;;;1.70;1.20;;;;;;;19.15;100.00;98561.98;109369;1285;22289;-56
2023/09/19 06:39:04;;;;;;;2.30;1.50;;;;;;;19.22;100.00;98561.31;109311;1285;100437;-57
2023/09/19 06:41:33;;;;;;;1.80;1.20;;;;;;;19.24;100.00;98553.83;109403;1286;22377;-57
2023/09/19 06:44:01;;;;;;;2.50;1.30;;;;;;;19.36;100.00;98548.66;109327;1283;100507;-56
2023/09/19 06:46:32;;;;;;;1.60;1.20;;;;;;;19.61;100.00;98552.84;108902;1291;23002;-57
2023/09/19 06:49:06;;;;;;;1.40;1.10;;;;;;;19.98;100.00;98548.47;109387;1285;22153;-56
2023/09/19 06:51:34;;;;;;;2.00;1.10;;;;;;;20.54;100.00;98549.81;109095;1288;101149;-58
2023/09/19 06:54:05;;;;;;;2.00;1.10;;;;;;;21.07;100.00;98546.36;109294;1285;22313;-56
2023/09/19 06:56:33;;;;;;;1.20;0.90;;;;;;;21.45;100.00;98543.86;109328;1285;99941;-57
2023/09/19 06:59:05;;;;;;;1.90;1.30;;;;;;;21.78;100.00;98546.00;109413;1281;22346;-59
2023/09/19 07:01:35;;;;;;;2.00;1.20;;;;;;;22.22;100.00;98549.91;109121;1288;23400;-57
2023/09/19 07:04:05;;;;;;;2.90;1.00;;;;;;;22.57;100.00;98548.91;109295;1285;99523;-57
2023/09/19 07:06:33;;;;;;;3.50;1.10;;;;;;;22.65;99.96;98551.31;109158;1286;22169;-57
2023/09/19 07:09:02;;;;;;;1.90;1.00;;;;;;;22.56;99.58;98557.13;109282;1285;100090;-57
2023/09/19 07:11:31;;;;;;;1.30;1.20;;;;;;;22.42;99.12;98552.55;109092;1285;22163;-57
2023/09/19 07:14:01;;;;;;;1.40;1.00;;;;;;;22.29;98.80;98548.94;109329;1285;99901;-57
2023/09/19 07:16:32;;;;;;;1.80;1.10;;;;;;;22.14;98.31;98547.26;109292;1286;22096;-57
2023/09/19 07:19:01;;;;;;;2.60;0.80;;;;;;;21.96;97.98;98552.06;109005;1286;22073;-57
2023/09/19 07:21:32;;;;;;;1.10;0.70;;;;;;;21.82;97.68;98564.19;109308;1285;100157;-57
2023/09/19 07:24:02;;;;;;;2.10;1.10;;;;;;;21.59;97.05;98568.61;109394;1285;23001;-57
2023/09/19 07:26:31;;;;;;;1.40;1.10;;;;;;;21.50;97.05;98569.34;109228;1286;99883;-57
2023/09/19 07:29:03;;;;;;;2.70;0.90;;;;;;;21.52;96.97;98563.27;109388;1280;22256;-57
2023/09/19 07:31:32;;;;;;;2.60;1.20;;;;;;;21.59;96.71;98562.06;109190;1279;22140;-57
2023/09/19 07:34:00;;;;;;;1.90;0.90;;;;;;;21.75;96.38;98567.38;109318;1285;99788;-57
2023/09/19 07:36:30;;;;;;;1.40;0.90;;;;;;;21.87;95.68;98567.61;109423;1285;22306;-57
2023/09/19 07:39:00;;;;;;;1.90;0.80;;;;;;;21.92;95.35;98574.66;108900;1286;99734;-57
2023/09/19 07:41:49;;;;;;;1.30;0.70;;;;;;;21.93;95.03;98579.18;109394;1285;23025;-57
2023/09/19 07:44:19;;;;;;;1.10;0.70;;;;;;;21.98;94.95;98574.58;109331;1285;99674;-57
2023/09/19 07:46:50;;;;;;;1.20;0.90;;;;;;;21.94;94.34;98573.29;109420;1285;22888;-57
2023/09/19 07:49:19;;;;;;;1.50;0.80;;;;;;;21.95;94.31;98571.32;109424;1285;22177;-58
2023/09/19 07:51:48;;;;;;;3.40;1.20;;;;;;;22.02;94.26;98574.26;108907;1285;99617;-58
2023/09/19 07:54:17;;;;;;;2.30;0.80;;;;;;;22.14;94.07;98578.20;109168;1287;22913;-58
2023/09/19 07:56:45;;;;;;;2.00;0.60;;;;;;;22.21;93.70;98582.66;109318;1285;101583;-58
2023/09/19 07:59:14;;;;;;;1.90;0.80;;;;;;;22.22;93.05;98579.83;109144;1287;23351;-56
2023/09/19 08:01:44;;;;;;;1.40;1.00;;;;;;;22.20;92.98;98586.08;109029;1286;100257;-56
2023/09/19 08:04:13;;;;;;;1.00;0.60;;;;;;;22.64;93.89;98583.38;109399;1285;22313;-56
2023/09/19 08:06:43;;;;;;;0.80;0.60;;;;;;;23.50;93.91;98588.73;109358;1285;23058;-56
2023/09/19 08:09:17;;;;;;;1.60;0.70;;;;;;;24.74;93.45;98591.33;109341;1285;101576;-57
2023/09/19 08:11:50;;;;;;;0.80;0.60;;;;;;;25.32;91.74;98589.05;109426;1285;22167;-57
2023/09/19 08:14:18;;;;;;;1.70;0.80;;;;;;;25.76;91.41;98591.81;109213;1286;100436;-57
2023/09/19 08:16:47;;;;;;;3.30;1.00;;;;;;;25.99;88.77;98593.64;109362;1285;22194;-57
2023/09/19 08:19:16;;;;;;;0.90;0.50;;;;;;;25.74;86.71;98603.50;109280;1285;22249;-56
2023/09/19 08:21:47;;;;;;;2.00;0.70;;;;;;;25.43;86.32;98606.20;109341;1285;99651;-57
2023/09/19 08:24:18;;;;;;;2.30;0.60;;;;;;;25.20;86.05;98613.52;109387;1284;23846;-55
2023/09/19 08:26:51;;;;;;;0.70;0.40;;;;;;;25.24;85.89;98614.77;109324;1285;100087;-53
2023/09/19 08:29:20;;;;;;;1.00;0.70;;;;;;;25.75;86.06;98614.72;109369;1284;23028;-56
2023/09/19 08:31:50;;;;;;;1.00;0.80;;;;;;;26.53;85.46;98620.17;108992;1285;99680;-57
2023/09/19 08:34:21;;;;;;;1.20;0.70;;;;;;;27.25;83.55;98624.58;109383;1285;22258;-58
2023/09/19 08:36:52;;;;;;;1.80;0.50;;;;;;;27.98;83.19;98625.84;109408;1285;22285;-57
2023/09/19 08:39:21;;;;;;;1.90;0.40;;;;;;;28.67;82.50;98632.42;109058;1286;102509;-57
2023/09/19 08:41:56;;;;;;;1.10;0.40;;;;;;;29.33;81.77;98636.92;109141;1286;23490;-57
2023/09/19 08:44:25;;;;;;;3.20;0.50;;;;;;;29.91;79.23;98641.08;109327;1285;99520;-57
2023/09/19 08:46:58;;;;;;;0.80;0.50;;;;;;;29.70;76.83;98647.05;109093;1287;22330;-57
2023/09/19 08:49:44;;;;;;;1.60;0.40;;;;;;;28.75;72.85;98647.76;109366;1285;22242;-57
2023/09/19 08:52:41;;;;;;;1.60;0.50;;;;;;;27.54;70.24;98648.08;108953;1286;22444;-57
2023/09/19 08:55:19;;;;;;;1.50;0.60;;;;;;;26.74;69.78;98648.86;109264;1286;22894;-57
2023/09/19 08:57:59;;;;;;;2.60;1.40;;;;;;;25.89;68.62;98654.48;109319;1285;100083;-57
2023/09/19 09:00:29;;;;;;;0.70;0.50;;;;;;;25.12;67.75;98660.27;109373;1285;22139;-57
2023/09/19 09:03:01;;;;;;;1.00;0.60;;;;;;;24.91;68.29;98654.75;109159;1286;104628;-56
2023/09/19 09:05:32;;;;;;;0.60;0.30;;;;;;;25.57;68.50;98655.50;109227;1286;22319;-57
2023/09/19 09:08:02;;;;;;;2.50;0.60;;;;;;;26.62;68.44;98651.68;109310;1286;99728;-57
2023/09/19 09:10:31;;;;;;;0.60;0.40;;;;;;;28.32;68.27;98648.55;109379;1282;22321;-57
2023/09/19 09:13:00;;;;;;;1.40;0.30;;;;;;;29.67;65.60;98657.79;109391;1285;22450;-57
2023/09/19 09:15:31;;;;;;;2.10;0.50;;;;;;;29.11;64.12;98656.80;109293;1286;99796;-57
2023/09/19 09:18:00;;;;;;;0.50;0.40;;;;;;;28.98;64.58;98655.87;109365;1285;22604;-57
2023/09/19 09:20:29;;;;;;;0.80;0.40;;;;;;;29.20;62.83;98665.23;109312;1284;100585;-57
2023/09/19 09:23:00;;;;;;;0.50;0.30;;;;;;;28.39;61.70;98664.58;109358;1285;22300;-56
2023/09/19 09:25:54;;;;;;;1.30;0.40;;;;;;;27.23;61.33;98666.82;109188;1286;22964;-57
2023/09/19 09:28:25;;;;;;;0.40;0.30;;;;;;;26.23;61.26;98671.72;109398;1285;22253;-56
2023/09/19 09:30:58;;;;;;;0.60;0.50;;;;;;;26.09;61.64;98672.56;109315;1286;22290;-55
2023/09/19 09:33:28;;;;;;;1.70;0.40;;;;;;;26.11;61.47;98672.30;109037;1287;100794;-55
2023/09/19 09:36:02;;;;;;;4.50;0.80;;;;;;;26.40;61.17;98675.22;109302;1285;23283;-52
2023/09/19 09:38:46;;;;;;;1.60;0.30;;;;;;;26.54;60.81;98680.70;109310;1285;99833;-55
2023/09/19 09:41:43;;;;;;;1.10;0.80;;;;;;;27.76;62.67;98680.19;109367;1285;22323;-57
2023/09/19 09:44:19;;;;;;;0.80;0.40;;;;;;;30.52;60.14;98682.63;109275;1286;100230;-55
2023/09/19 09:52:07;;;;;;;0.80;0.50;;;;;;;31.41;59.07;98674.77;109040;1287;101614;-56
2023/09/19 09:55:08;;;;;;;0.80;0.40;;;;;;;34.71;58.92;98673.70;109174;1286;22177;-60
2023/09/19 09:57:40;;;;;;;0.40;0.20;;;;;;;37.40;56.64;98675.80;109286;1286;99671;-56
2023/09/19 10:02:46;;;;;;;1.40;0.80;;;;;;;37.73;51.59;98685.52;109250;1285;99542;-55
2023/09/19 10:08:12;;;;;;;0.90;0.60;;;;;;;33.66;49.66;98694.76;109073;1285;102197;-60
2023/09/19 10:13:31;;;;;;;0.70;0.40;;;;;;;29.73;47.27;98704.67;109323;1285;22380;-61
2023/09/19 10:16:07;;;;;;;2.00;0.40;;;;;;;28.41;46.86;98706.36;109286;1285;99551;-56
2023/09/19 10:18:38;;;;;;;;;;;;;;;27.35;47.10;98703.87;109403;1285;23228;-60
2023/09/19 10:21:10;;;;;;;1.70;0.50;;;;;;;27.00;47.45;98692.02;109028;1286;86501;-52
2023/09/19 10:23:42;;;;;;;4.70;0.70;;;;;;;28.32;48.19;98690.05;109375;1285;22307;-59
2023/09/19 10:26:17;;;;;;;2.00;0.50;;;;;;;29.23;47.09;98692.76;109043;1286;99563;-57
2023/09/19 10:28:48;;;;;;;1.40;0.60;;;;;;;28.52;46.66;98692.79;109372;1286;22176;-57
2023/09/19 10:31:24;;;;;;;0.70;0.50;;;;;;;28.66;47.29;98688.84;109353;1285;23100;-57
2023/09/19 10:33:55;;;;;;;1.00;0.50;;;;;;;29.33;46.47;98701.30;108886;1286;100393;-58
2023/09/19 10:36:26;;;;;;;4.20;0.70;;;;;;;29.22;46.81;98702.61;109254;1286;23140;-58
2023/09/19 10:38:57;;;;;;;1.30;0.70;;;;;;;29.34;46.69;98702.52;109283;1285;99626;-57
2023/09/19 10:41:29;;;;;;;1.40;0.60;;;;;;;29.27;46.52;98709.93;109333;1285;22452;-57
2023/09/19 10:43:59;;;;;;;0.70;0.30;;;;;;;29.26;47.01;98714.66;109012;1286;99740;-57
2023/09/19 10:46:28;;;;;;;1.10;0.50;;;;;;;29.47;46.62;98709.40;109375;1285;22290;-57
2023/09/19 10:49:02;;;;;;;3.40;0.70;;;;;;;29.12;46.51;98709.22;109336;1286;23570;-57
2023/09/19 10:51:40;;;;;;;2.30;0.80;;;;;;;29.28;46.19;98711.71;109309;1286;99663;-57
2023/09/19 10:54:13;;;;;;;3.00;0.90;;;;;;;28.62;45.91;98716.06;109283;1285;22258;-57
2023/09/19 10:56:50;;;;;;;0.90;0.30;;;;;;;27.87;45.80;98720.37;109094;1286;100242;-58
2023/09/19 10:59:20;;;;;;;0.70;0.30;;;;;;;27.00;46.05;98726.84;109310;1285;22319;-59
2023/09/19 11:01:57;;;;;;;1.90;0.40;;;;;;;26.27;46.06;98730.07;109242;1285;100498;-55
2023/09/19 11:04:32;;;;;;;1.50;0.50;;;;;;;25.58;46.38;98733.67;109308;1285;22331;-58
2023/09/19 11:07:14;;;;;;;1.80;0.50;;;;;;;24.99;46.40;98739.30;108979;1286;22292;-58
2023/09/19 11:09:58;;;;;;;0.90;0.50;;;;;;;24.46;47.03;98742.36;109301;1285;100299;-55
2023/09/19 11:12:30;;;;;;;0.80;0.40;;;;;;;24.18;47.30;98732.94;109008;1288;22302;-58
2023/09/19 11:14:59;;;;;;;1.10;0.50;;;;;;;24.38;47.99;98733.25;109283;1285;99573;-56
2023/09/19 11:17:32;;;;;;;5.40;0.30;;;;;;;25.63;48.48;98738.14;109395;1285;22147;-56
2023/09/19 11:22:49;;;;;;;0.80;0.40;;;;;;;26.50;47.88;98735.88;109410;1286;22124;-56
2023/09/19 11:25:29;;;;;;;1.80;0.90;;;;;;;25.96;47.83;98740.45;109401;1285;22322;-56
2023/09/19 11:28:22;;;;;;;1.20;0.50;;;;;;;25.82;48.09;98738.29;109300;1285;100674;-55
2023/09/19 11:30:55;;;;;;;1.40;0.70;;;;;;;26.01;48.15;98743.55;109273;1285;22332;-55
2023/09/19 11:33:46;;;;;;;4.90;0.60;;;;;;;26.18;48.06;98752.87;109306;1286;100071;-54
2023/09/19 11:36:16;;;;;;;0.70;0.40;;;;;;;26.66;48.26;98750.42;109410;1286;22086;-54
2023/09/19 11:38:45;;;;;;;1.70;0.50;;;;;;;26.62;47.51;98750.32;109258;1286;100051;-55
2023/09/19 11:41:20;;;;;;;3.10;0.60;;;;;;;26.34;47.88;98757.11;109397;1286;22188;-54
2023/09/19 11:43:51;;;;;;;2.80;0.70;;;;;;;26.24;47.79;98757.51;109276;1285;99790;-53
2023/09/19 11:46:24;;;;;;;0.80;0.30;;;;;;;25.98;47.93;98761.05;109238;1286;22576;-55
2023/09/19 11:48:53;;;;;;;1.20;0.60;;;;;;;25.64;47.81;98765.12;109373;1285;22236;-55
2023/09/19 11:51:26;;;;;;;4.50;0.60;;;;;;;25.32;47.91;98769.50;109274;1285;100136;-54
2023/09/19 11:54:00;;;;;;;0.80;0.50;;;;;;;26.01;48.92;98766.89;109303;1285;22188;-55
2023/09/19 11:56:31;;;;;;;0.70;0.40;;;;;;;28.04;48.82;98765.96;109319;1286;100584;-54
2023/09/19 11:59:00;;;;;;;1.60;0.60;;;;;;;29.53;47.94;98765.22;109370;1285;22218;-55